sensor_id;sensor_type;location;lat;lon;timestamp;temperature;humidity
40340;DHT22;26044;50.864;20.658;2022-09-06T00:00:57;10.20;99.90
40340;DHT22;26044;50.864;20.658;2022-09-06T00:03:24;10.20;99.90
40340;DHT22;26044;50.864;20.658;2022-09-06T00:05:53;10.20;99.90
40340;DHT22;26044;50.864;20.658;2022-09-06T00:08:20;10.20;99.90
40340;DHT22;26044;50.864;20.658;2022-09-06T00:10:47;10.20;99.90
40340;DHT22;26044;50.864;20.658;2022-09-06T00:13:13;10.20;99.90
40340;DHT22;26044;50.864;20.658;2022-09-06T00:15:40;10.20;99.90
40340;DHT22;26044;50.864;20.658;2022-09-06T00:18:07;10.20;99.90
40340;DHT22;26044;50.864;20.658;2022-09-06T00:20:34;10.10;99.90
40340;DHT22;26044;50.864;20.658;2022-09-06T00:23:07;10.00;99.90
40340;DHT22;26044;50.864;20.658;2022-09-06T00:25:34;10.00;99.90
40340;DHT22;26044;50.864;20.658;2022-09-06T00:28:03;10.00;99.90
40340;DHT22;26044;50.864;20.658;2022-09-06T00:30:31;10.00;99.90
40340;DHT22;26044;50.864;20.658;2022-09-06T00:32:59;9.90;99.90
40340;DHT22;26044;50.864;20.658;2022-09-06T00:35:26;9.90;99.90
40340;DHT22;26044;50.864;20.658;2022-09-06T00:38:00;9.90;99.90
40340;DHT22;26044;50.864;20.658;2022-09-06T00:40:29;9.90;99.90
40340;DHT22;26044;50.864;20.658;2022-09-06T00:42:56;9.90;99.90
40340;DHT22;26044;50.864;20.658;2022-09-06T00:45:25;9.80;99.90
40340;DHT22;26044;50.864;20.658;2022-09-06T00:47:53;9.80;99.90
40340;DHT22;26044;50.864;20.658;2022-09-06T00:50:20;9.90;99.90
40340;DHT22;26044;50.864;20.658;2022-09-06T00:52:49;9.80;99.90
40340;DHT22;26044;50.864;20.658;2022-09-06T00:55:19;9.90;99.90
40340;DHT22;26044;50.864;20.658;2022-09-06T00:57:48;9.80;99.90
40340;DHT22;26044;50.864;20.658;2022-09-06T01:00:18;9.80;99.90
40340;DHT22;26044;50.864;20.658;2022-09-06T01:02:46;9.70;99.90
40340;DHT22;26044;50.864;20.658;2022-09-06T01:05:14;9.60;99.90
40340;DHT22;26044;50.864;20.658;2022-09-06T01:07:57;9.60;99.90
40340;DHT22;26044;50.864;20.658;2022-09-06T01:20:21;9.60;99.90
40340;DHT22;26044;50.864;20.658;2022-09-06T01:28:43;9.50;99.90
40340;DHT22;26044;50.864;20.658;2022-09-06T01:31:30;9.40;99.90
40340;DHT22;26044;50.864;20.658;2022-09-06T01:36:58;9.40;99.90
40340;DHT22;26044;50.864;20.658;2022-09-06T01:39:37;9.40;99.90
40340;DHT22;26044;50.864;20.658;2022-09-06T01:42:12;9.50;99.90
40340;DHT22;26044;50.864;20.658;2022-09-06T01:44:42;9.40;99.90
40340;DHT22;26044;50.864;20.658;2022-09-06T02:04:59;9.50;99.90
40340;DHT22;26044;50.864;20.658;2022-09-06T02:07:29;9.50;99.90
40340;DHT22;26044;50.864;20.658;2022-09-06T02:12:36;9.50;99.90
40340;DHT22;26044;50.864;20.658;2022-09-06T02:15:12;9.40;99.90
40340;DHT22;26044;50.864;20.658;2022-09-06T02:17:48;9.40;99.90
40340;DHT22;26044;50.864;20.658;2022-09-06T02:20:27;9.30;99.90
40340;DHT22;26044;50.864;20.658;2022-09-06T02:22:59;9.40;99.90
40340;DHT22;26044;50.864;20.658;2022-09-06T02:25:33;9.40;99.90
40340;DHT22;26044;50.864;20.658;2022-09-06T02:28:01;9.40;99.90
40340;DHT22;26044;50.864;20.658;2022-09-06T02:30:28;9.40;99.90
40340;DHT22;26044;50.864;20.658;2022-09-06T02:32:58;9.30;99.90
40340;DHT22;26044;50.864;20.658;2022-09-06T02:35:27;9.40;99.90
40340;DHT22;26044;50.864;20.658;2022-09-06T02:37:54;9.40;99.90
40340;DHT22;26044;50.864;20.658;2022-09-06T02:40:22;9.50;99.90
40340;DHT22;26044;50.864;20.658;2022-09-06T02:42:48;9.40;99.90
40340;DHT22;26044;50.864;20.658;2022-09-06T02:45:15;9.40;99.90
40340;DHT22;26044;50.864;20.658;2022-09-06T02:47:42;9.30;99.90
40340;DHT22;26044;50.864;20.658;2022-09-06T02:50:09;9.20;99.90
40340;DHT22;26044;50.864;20.658;2022-09-06T02:52:36;9.20;99.90
40340;DHT22;26044;50.864;20.658;2022-09-06T02:55:03;9.20;99.90
40340;DHT22;26044;50.864;20.658;2022-09-06T02:57:30;9.20;99.90
40340;DHT22;26044;50.864;20.658;2022-09-06T02:59:56;9.30;99.90
40340;DHT22;26044;50.864;20.658;2022-09-06T03:02:23;9.30;99.90
40340;DHT22;26044;50.864;20.658;2022-09-06T03:04:50;9.20;99.90
40340;DHT22;26044;50.864;20.658;2022-09-06T03:07:17;9.20;99.90
40340;DHT22;26044;50.864;20.658;2022-09-06T03:09:44;9.10;99.90
40340;DHT22;26044;50.864;20.658;2022-09-06T03:12:11;9.10;99.90
40340;DHT22;26044;50.864;20.658;2022-09-06T03:14:37;9.10;99.90
40340;DHT22;26044;50.864;20.658;2022-09-06T03:17:06;9.10;99.90
40340;DHT22;26044;50.864;20.658;2022-09-06T03:19:33;9.20;99.90
40340;DHT22;26044;50.864;20.658;2022-09-06T03:22:00;9.20;99.90
40340;DHT22;26044;50.864;20.658;2022-09-06T03:24:27;9.10;99.90
40340;DHT22;26044;50.864;20.658;2022-09-06T03:26:53;9.10;99.90
40340;DHT22;26044;50.864;20.658;2022-09-06T03:29:20;9.00;99.90
40340;DHT22;26044;50.864;20.658;2022-09-06T03:31:47;9.00;99.90
40340;DHT22;26044;50.864;20.658;2022-09-06T03:34:13;9.00;99.90
40340;DHT22;26044;50.864;20.658;2022-09-06T03:36:40;9.10;99.90
40340;DHT22;26044;50.864;20.658;2022-09-06T03:39:07;9.10;99.90
40340;DHT22;26044;50.864;20.658;2022-09-06T03:41:34;9.20;99.90
40340;DHT22;26044;50.864;20.658;2022-09-06T03:44:01;9.10;99.90
40340;DHT22;26044;50.864;20.658;2022-09-06T03:46:27;9.20;99.90
40340;DHT22;26044;50.864;20.658;2022-09-06T03:48:57;9.10;99.90
40340;DHT22;26044;50.864;20.658;2022-09-06T03:51:24;9.00;99.90
40340;DHT22;26044;50.864;20.658;2022-09-06T03:53:51;9.10;99.90
40340;DHT22;26044;50.864;20.658;2022-09-06T03:56:18;8.90;99.90
40340;DHT22;26044;50.864;20.658;2022-09-06T03:58:45;9.00;99.90
40340;DHT22;26044;50.864;20.658;2022-09-06T04:01:12;8.90;99.90
40340;DHT22;26044;50.864;20.658;2022-09-06T04:03:40;9.00;99.90
40340;DHT22;26044;50.864;20.658;2022-09-06T04:06:07;9.00;99.90
40340;DHT22;26044;50.864;20.658;2022-09-06T04:08:34;9.00;99.90
40340;DHT22;26044;50.864;20.658;2022-09-06T04:11:02;9.00;99.90
40340;DHT22;26044;50.864;20.658;2022-09-06T04:13:30;8.90;99.90
40340;DHT22;26044;50.864;20.658;2022-09-06T04:15:57;9.00;99.90
40340;DHT22;26044;50.864;20.658;2022-09-06T04:18:24;8.90;99.90
40340;DHT22;26044;50.864;20.658;2022-09-06T04:20:53;9.00;99.90
40340;DHT22;26044;50.864;20.658;2022-09-06T04:23:24;9.00;99.90
40340;DHT22;26044;50.864;20.658;2022-09-06T04:25:52;9.00;99.90
40340;DHT22;26044;50.864;20.658;2022-09-06T04:28:20;9.00;99.90
40340;DHT22;26044;50.864;20.658;2022-09-06T04:30:52;9.00;99.90
40340;DHT22;26044;50.864;20.658;2022-09-06T04:33:20;9.10;99.90
40340;DHT22;26044;50.864;20.658;2022-09-06T04:35:50;9.10;99.90
40340;DHT22;26044;50.864;20.658;2022-09-06T04:38:17;9.20;99.90
40340;DHT22;26044;50.864;20.658;2022-09-06T04:40:43;9.20;99.90
40340;DHT22;26044;50.864;20.658;2022-09-06T04:43:10;9.30;99.90
40340;DHT22;26044;50.864;20.658;2022-09-06T04:45:37;9.40;99.90
40340;DHT22;26044;50.864;20.658;2022-09-06T04:48:04;9.40;99.90
40340;DHT22;26044;50.864;20.658;2022-09-06T04:50:31;9.50;99.90
40340;DHT22;26044;50.864;20.658;2022-09-06T04:52:58;9.60;99.90
40340;DHT22;26044;50.864;20.658;2022-09-06T04:55:24;9.70;99.90
40340;DHT22;26044;50.864;20.658;2022-09-06T04:57:52;9.70;99.90
40340;DHT22;26044;50.864;20.658;2022-09-06T05:00:18;9.80;99.90
40340;DHT22;26044;50.864;20.658;2022-09-06T05:02:45;9.90;99.90
40340;DHT22;26044;50.864;20.658;2022-09-06T05:05:12;9.90;99.90
40340;DHT22;26044;50.864;20.658;2022-09-06T05:07:39;10.00;99.90
40340;DHT22;26044;50.864;20.658;2022-09-06T05:10:05;10.10;99.90
40340;DHT22;26044;50.864;20.658;2022-09-06T05:12:32;10.20;99.90
40340;DHT22;26044;50.864;20.658;2022-09-06T05:14:59;10.30;99.90
40340;DHT22;26044;50.864;20.658;2022-09-06T05:17:26;10.40;99.90
40340;DHT22;26044;50.864;20.658;2022-09-06T05:19:52;10.40;99.90
40340;DHT22;26044;50.864;20.658;2022-09-06T05:22:19;10.50;99.90
40340;DHT22;26044;50.864;20.658;2022-09-06T05:24:46;10.60;99.90
40340;DHT22;26044;50.864;20.658;2022-09-06T05:27:13;10.70;99.90
40340;DHT22;26044;50.864;20.658;2022-09-06T05:29:40;10.80;99.90
40340;DHT22;26044;50.864;20.658;2022-09-06T05:32:07;10.90;99.90
40340;DHT22;26044;50.864;20.658;2022-09-06T05:34:34;10.90;99.90
40340;DHT22;26044;50.864;20.658;2022-09-06T05:37:00;11.00;99.90
40340;DHT22;26044;50.864;20.658;2022-09-06T05:39:27;11.10;99.90
40340;DHT22;26044;50.864;20.658;2022-09-06T05:41:54;11.20;99.90
40340;DHT22;26044;50.864;20.658;2022-09-06T05:44:20;11.20;99.90
40340;DHT22;26044;50.864;20.658;2022-09-06T05:46:47;11.30;99.90
40340;DHT22;26044;50.864;20.658;2022-09-06T05:49:14;11.40;99.90
40340;DHT22;26044;50.864;20.658;2022-09-06T05:51:41;11.50;99.90
40340;DHT22;26044;50.864;20.658;2022-09-06T05:54:10;11.60;99.90
40340;DHT22;26044;50.864;20.658;2022-09-06T05:56:37;11.70;99.90
40340;DHT22;26044;50.864;20.658;2022-09-06T05:59:04;11.80;99.90
40340;DHT22;26044;50.864;20.658;2022-09-06T06:01:31;12.00;99.90
40340;DHT22;26044;50.864;20.658;2022-09-06T06:04:03;12.10;99.90
40340;DHT22;26044;50.864;20.658;2022-09-06T06:06:32;12.20;99.90
40340;DHT22;26044;50.864;20.658;2022-09-06T06:08:59;12.30;99.90
40340;DHT22;26044;50.864;20.658;2022-09-06T06:11:27;12.50;99.90
40340;DHT22;26044;50.864;20.658;2022-09-06T06:13:54;12.60;99.90
40340;DHT22;26044;50.864;20.658;2022-09-06T06:16:21;12.70;99.90
40340;DHT22;26044;50.864;20.658;2022-09-06T06:18:48;12.90;99.90
40340;DHT22;26044;50.864;20.658;2022-09-06T06:21:25;13.00;99.90
40340;DHT22;26044;50.864;20.658;2022-09-06T06:23:56;13.10;99.90
40340;DHT22;26044;50.864;20.658;2022-09-06T06:26:24;13.20;99.90
40340;DHT22;26044;50.864;20.658;2022-09-06T06:28:52;13.40;99.90
40340;DHT22;26044;50.864;20.658;2022-09-06T06:31:19;13.40;99.90
40340;DHT22;26044;50.864;20.658;2022-09-06T06:33:48;13.60;99.90
40340;DHT22;26044;50.864;20.658;2022-09-06T06:38:43;13.90;99.90
40340;DHT22;26044;50.864;20.658;2022-09-06T06:41:12;13.90;99.90
40340;DHT22;26044;50.864;20.658;2022-09-06T06:43:40;14.00;99.90
40340;DHT22;26044;50.864;20.658;2022-09-06T06:46:09;14.10;99.90
40340;DHT22;26044;50.864;20.658;2022-09-06T06:48:37;14.10;99.90
40340;DHT22;26044;50.864;20.658;2022-09-06T06:51:07;14.20;99.90
40340;DHT22;26044;50.864;20.658;2022-09-06T06:53:34;14.20;99.90
40340;DHT22;26044;50.864;20.658;2022-09-06T06:56:14;14.30;99.90
40340;DHT22;26044;50.864;20.658;2022-09-06T06:58:43;14.40;99.90
40340;DHT22;26044;50.864;20.658;2022-09-06T07:01:10;14.40;99.90
40340;DHT22;26044;50.864;20.658;2022-09-06T07:03:37;14.50;99.90
40340;DHT22;26044;50.864;20.658;2022-09-06T07:06:05;14.60;99.90
40340;DHT22;26044;50.864;20.658;2022-09-06T07:08:33;14.60;99.90
40340;DHT22;26044;50.864;20.658;2022-09-06T07:11:02;14.60;99.90
40340;DHT22;26044;50.864;20.658;2022-09-06T07:13:30;14.70;99.90
40340;DHT22;26044;50.864;20.658;2022-09-06T07:16:16;14.80;99.90
40340;DHT22;26044;50.864;20.658;2022-09-06T07:18:44;14.90;99.90
40340;DHT22;26044;50.864;20.658;2022-09-06T07:21:16;14.90;99.90
40340;DHT22;26044;50.864;20.658;2022-09-06T07:24:04;15.00;99.90
40340;DHT22;26044;50.864;20.658;2022-09-06T07:26:35;15.10;99.90
40340;DHT22;26044;50.864;20.658;2022-09-06T07:29:03;15.20;99.90
40340;DHT22;26044;50.864;20.658;2022-09-06T07:31:31;15.30;99.90
40340;DHT22;26044;50.864;20.658;2022-09-06T07:34:18;15.40;99.90
40340;DHT22;26044;50.864;20.658;2022-09-06T07:36:46;15.40;99.90
40340;DHT22;26044;50.864;20.658;2022-09-06T07:39:13;15.50;99.90
40340;DHT22;26044;50.864;20.658;2022-09-06T07:41:41;15.60;99.90
40340;DHT22;26044;50.864;20.658;2022-09-06T07:44:08;15.80;99.90
40340;DHT22;26044;50.864;20.658;2022-09-06T07:46:35;15.80;99.90
40340;DHT22;26044;50.864;20.658;2022-09-06T07:49:05;15.90;99.90
40340;DHT22;26044;50.864;20.658;2022-09-06T07:51:32;16.00;99.90
40340;DHT22;26044;50.864;20.658;2022-09-06T07:53:59;16.10;99.90
40340;DHT22;26044;50.864;20.658;2022-09-06T07:56:46;16.10;99.90
40340;DHT22;26044;50.864;20.658;2022-09-06T07:59:13;16.10;99.90
40340;DHT22;26044;50.864;20.658;2022-09-06T08:01:40;16.20;99.90
40340;DHT22;26044;50.864;20.658;2022-09-06T08:04:14;16.20;98.70
40340;DHT22;26044;50.864;20.658;2022-09-06T08:06:46;16.30;96.20
40340;DHT22;26044;50.864;20.658;2022-09-06T08:09:33;16.40;95.00
40340;DHT22;26044;50.864;20.658;2022-09-06T08:12:01;16.60;91.80
40340;DHT22;26044;50.864;20.658;2022-09-06T08:14:33;16.60;92.90
40340;DHT22;26044;50.864;20.658;2022-09-06T08:17:01;16.60;91.70
40340;DHT22;26044;50.864;20.658;2022-09-06T08:19:28;16.70;91.10
40340;DHT22;26044;50.864;20.658;2022-09-06T08:21:55;16.70;90.20
40340;DHT22;26044;50.864;20.658;2022-09-06T08:24:22;16.80;87.80
40340;DHT22;26044;50.864;20.658;2022-09-06T08:26:49;17.00;82.80
40340;DHT22;26044;50.864;20.658;2022-09-06T08:29:16;17.10;80.30
40340;DHT22;26044;50.864;20.658;2022-09-06T08:31:43;17.20;85.20
40340;DHT22;26044;50.864;20.658;2022-09-06T08:34:11;17.20;87.30
40340;DHT22;26044;50.864;20.658;2022-09-06T08:36:38;17.10;88.60
40340;DHT22;26044;50.864;20.658;2022-09-06T08:39:07;17.10;85.40
40340;DHT22;26044;50.864;20.658;2022-09-06T08:42:00;17.20;84.40
40340;DHT22;26044;50.864;20.658;2022-09-06T08:44:33;17.20;81.40
40340;DHT22;26044;50.864;20.658;2022-09-06T08:47:21;17.20;82.80
40340;DHT22;26044;50.864;20.658;2022-09-06T08:50:02;17.40;83.00
40340;DHT22;26044;50.864;20.658;2022-09-06T08:52:55;17.60;84.30
40340;DHT22;26044;50.864;20.658;2022-09-06T08:56:11;17.50;81.10
40340;DHT22;26044;50.864;20.658;2022-09-06T08:59:03;17.40;80.00
40340;DHT22;26044;50.864;20.658;2022-09-06T09:01:55;17.40;76.10
40340;DHT22;26044;50.864;20.658;2022-09-06T09:04:25;17.50;73.80
40340;DHT22;26044;50.864;20.658;2022-09-06T09:06:58;17.50;76.70
40340;DHT22;26044;50.864;20.658;2022-09-06T09:09:29;17.70;75.00
40340;DHT22;26044;50.864;20.658;2022-09-06T09:11:58;18.00;71.10
40340;DHT22;26044;50.864;20.658;2022-09-06T09:14:26;18.00;71.30
40340;DHT22;26044;50.864;20.658;2022-09-06T09:17:03;18.10;70.70
40340;DHT22;26044;50.864;20.658;2022-09-06T09:19:30;18.20;71.70
40340;DHT22;26044;50.864;20.658;2022-09-06T09:22:02;18.40;69.40
40340;DHT22;26044;50.864;20.658;2022-09-06T09:24:29;18.30;67.50
40340;DHT22;26044;50.864;20.658;2022-09-06T09:27:10;18.40;68.90
40340;DHT22;26044;50.864;20.658;2022-09-06T09:32:43;18.20;67.40
40340;DHT22;26044;50.864;20.658;2022-09-06T09:35:36;18.20;68.30
40340;DHT22;26044;50.864;20.658;2022-09-06T09:38:11;18.20;68.80
40340;DHT22;26044;50.864;20.658;2022-09-06T09:41:01;18.40;70.60
40340;DHT22;26044;50.864;20.658;2022-09-06T09:43:39;18.50;70.30
40340;DHT22;26044;50.864;20.658;2022-09-06T09:48:37;18.50;67.70
40340;DHT22;26044;50.864;20.658;2022-09-06T09:51:20;18.50;67.00
40340;DHT22;26044;50.864;20.658;2022-09-06T09:53:58;18.50;68.00
40340;DHT22;26044;50.864;20.658;2022-09-06T09:56:50;18.50;68.70
40340;DHT22;26044;50.864;20.658;2022-09-06T10:01:47;19.10;62.20
40340;DHT22;26044;50.864;20.658;2022-09-06T10:04:34;19.80;63.00
40340;DHT22;26044;50.864;20.658;2022-09-06T10:07:18;20.30;61.40
40340;DHT22;26044;50.864;20.658;2022-09-06T10:09:48;20.80;61.00
40340;DHT22;26044;50.864;20.658;2022-09-06T10:12:38;21.10;59.80
40340;DHT22;26044;50.864;20.658;2022-09-06T10:15:08;21.20;59.80
40340;DHT22;26044;50.864;20.658;2022-09-06T10:17:50;21.20;58.10
40340;DHT22;26044;50.864;20.658;2022-09-06T10:20:17;21.30;59.30
40340;DHT22;26044;50.864;20.658;2022-09-06T10:25:45;20.90;57.70
40340;DHT22;26044;50.864;20.658;2022-09-06T10:28:38;20.80;58.60
40340;DHT22;26044;50.864;20.658;2022-09-06T10:47:34;20.80;57.70
40340;DHT22;26044;50.864;20.658;2022-09-06T10:50:04;20.60;57.60
40340;DHT22;26044;50.864;20.658;2022-09-06T10:52:39;20.40;57.60
40340;DHT22;26044;50.864;20.658;2022-09-06T10:55:10;20.40;58.20
40340;DHT22;26044;50.864;20.658;2022-09-06T10:57:50;20.30;58.90
40340;DHT22;26044;50.864;20.658;2022-09-06T11:00:43;20.20;58.40
40340;DHT22;26044;50.864;20.658;2022-09-06T11:03:29;20.10;57.90
40340;DHT22;26044;50.864;20.658;2022-09-06T11:06:18;20.10;59.20
40340;DHT22;26044;50.864;20.658;2022-09-06T11:09:22;20.10;58.60
40340;DHT22;26044;50.864;20.658;2022-09-06T11:14:41;20.00;57.60
40340;DHT22;26044;50.864;20.658;2022-09-06T11:17:18;20.10;59.60
40340;DHT22;26044;50.864;20.658;2022-09-06T11:19:52;19.90;58.70
40340;DHT22;26044;50.864;20.658;2022-09-06T11:25:24;19.70;59.20
40340;DHT22;26044;50.864;20.658;2022-09-06T11:27:56;19.60;59.40
40340;DHT22;26044;50.864;20.658;2022-09-06T11:30:26;19.60;59.30
40340;DHT22;26044;50.864;20.658;2022-09-06T11:33:21;19.60;59.90
40340;DHT22;26044;50.864;20.658;2022-09-06T11:35:50;19.60;59.70
40340;DHT22;26044;50.864;20.658;2022-09-06T11:38:25;19.60;59.20
40340;DHT22;26044;50.864;20.658;2022-09-06T11:40:57;19.70;60.50
40340;DHT22;26044;50.864;20.658;2022-09-06T11:43:46;19.70;59.30
40340;DHT22;26044;50.864;20.658;2022-09-06T11:51:46;19.50;58.70
40340;DHT22;26044;50.864;20.658;2022-09-06T11:56:57;19.50;59.40
40340;DHT22;26044;50.864;20.658;2022-09-06T11:59:51;19.40;57.70
40340;DHT22;26044;50.864;20.658;2022-09-06T12:02:34;19.40;58.50
40340;DHT22;26044;50.864;20.658;2022-09-06T12:08:11;19.40;58.70
40340;DHT22;26044;50.864;20.658;2022-09-06T12:13:32;19.50;62.00
40340;DHT22;26044;50.864;20.658;2022-09-06T12:15:59;19.60;58.60
40340;DHT22;26044;50.864;20.658;2022-09-06T12:21:34;19.70;59.40
40340;DHT22;26044;50.864;20.658;2022-09-06T12:24:03;19.70;59.40
40340;DHT22;26044;50.864;20.658;2022-09-06T12:26:50;19.70;58.60
40340;DHT22;26044;50.864;20.658;2022-09-06T12:29:24;19.90;58.30
40340;DHT22;26044;50.864;20.658;2022-09-06T12:31:53;19.80;57.60
40340;DHT22;26044;50.864;20.658;2022-09-06T12:34:23;19.90;57.50
40340;DHT22;26044;50.864;20.658;2022-09-06T12:36:54;20.00;58.30
40340;DHT22;26044;50.864;20.658;2022-09-06T12:39:22;20.10;58.10
40340;DHT22;26044;50.864;20.658;2022-09-06T12:42:10;20.00;58.20
40340;DHT22;26044;50.864;20.658;2022-09-06T12:44:41;20.10;58.90
40340;DHT22;26044;50.864;20.658;2022-09-06T12:47:23;20.10;58.30
40340;DHT22;26044;50.864;20.658;2022-09-06T12:55:24;20.00;57.50
40340;DHT22;26044;50.864;20.658;2022-09-06T12:57:56;20.10;58.10
40340;DHT22;26044;50.864;20.658;2022-09-06T13:00:25;20.00;57.10
40340;DHT22;26044;50.864;20.658;2022-09-06T13:03:04;20.10;57.20
40340;DHT22;26044;50.864;20.658;2022-09-06T13:05:37;20.00;57.10
40340;DHT22;26044;50.864;20.658;2022-09-06T13:08:17;19.80;56.40
40340;DHT22;26044;50.864;20.658;2022-09-06T13:10:48;20.00;57.80
40340;DHT22;26044;50.864;20.658;2022-09-06T13:13:21;19.90;58.10
40340;DHT22;26044;50.864;20.658;2022-09-06T13:15:49;19.90;58.10
40340;DHT22;26044;50.864;20.658;2022-09-06T13:21:07;19.80;57.80
40340;DHT22;26044;50.864;20.658;2022-09-06T13:23:50;19.70;57.60
40340;DHT22;26044;50.864;20.658;2022-09-06T13:26:37;19.80;58.70
40340;DHT22;26044;50.864;20.658;2022-09-06T13:31:44;19.60;58.40
40340;DHT22;26044;50.864;20.658;2022-09-06T13:34:26;19.50;59.00
40340;DHT22;26044;50.864;20.658;2022-09-06T13:37:13;19.40;59.30
40340;DHT22;26044;50.864;20.658;2022-09-06T13:39:41;19.40;59.30
40340;DHT22;26044;50.864;20.658;2022-09-06T13:42:27;19.40;59.00
40340;DHT22;26044;50.864;20.658;2022-09-06T13:44:55;19.40;58.50
40340;DHT22;26044;50.864;20.658;2022-09-06T13:47:28;19.50;58.60
40340;DHT22;26044;50.864;20.658;2022-09-06T13:49:55;19.40;58.50
40340;DHT22;26044;50.864;20.658;2022-09-06T13:52:22;19.40;58.20
40340;DHT22;26044;50.864;20.658;2022-09-06T13:54:49;19.40;58.60
40340;DHT22;26044;50.864;20.658;2022-09-06T13:57:16;19.30;58.60
40340;DHT22;26044;50.864;20.658;2022-09-06T13:59:49;19.30;58.00
40340;DHT22;26044;50.864;20.658;2022-09-06T14:02:16;19.30;58.80
40340;DHT22;26044;50.864;20.658;2022-09-06T14:04:45;19.30;58.70
40340;DHT22;26044;50.864;20.658;2022-09-06T14:07:12;19.20;57.90
40340;DHT22;26044;50.864;20.658;2022-09-06T14:09:39;19.20;57.90
40340;DHT22;26044;50.864;20.658;2022-09-06T14:12:05;19.20;58.10
40340;DHT22;26044;50.864;20.658;2022-09-06T14:14:33;19.20;58.60
40340;DHT22;26044;50.864;20.658;2022-09-06T14:17:00;19.20;58.60
40340;DHT22;26044;50.864;20.658;2022-09-06T14:19:26;19.20;58.50
40340;DHT22;26044;50.864;20.658;2022-09-06T14:21:54;19.30;59.00
40340;DHT22;26044;50.864;20.658;2022-09-06T14:24:21;19.30;58.00
40340;DHT22;26044;50.864;20.658;2022-09-06T14:26:48;19.30;58.70
40340;DHT22;26044;50.864;20.658;2022-09-06T14:29:15;19.30;59.20
40340;DHT22;26044;50.864;20.658;2022-09-06T14:31:42;19.20;58.50
40340;DHT22;26044;50.864;20.658;2022-09-06T14:34:08;19.20;57.90
40340;DHT22;26044;50.864;20.658;2022-09-06T14:36:35;19.20;59.00
40340;DHT22;26044;50.864;20.658;2022-09-06T14:39:02;19.30;58.20
40340;DHT22;26044;50.864;20.658;2022-09-06T14:41:29;19.30;58.20
40340;DHT22;26044;50.864;20.658;2022-09-06T14:43:57;19.30;59.60
40340;DHT22;26044;50.864;20.658;2022-09-06T14:46:26;19.20;58.10
40340;DHT22;26044;50.864;20.658;2022-09-06T14:48:58;19.20;59.20
40340;DHT22;26044;50.864;20.658;2022-09-06T14:51:25;19.10;59.10
40340;DHT22;26044;50.864;20.658;2022-09-06T14:53:55;19.00;59.20
40340;DHT22;26044;50.864;20.658;2022-09-06T14:56:23;18.90;59.90
40340;DHT22;26044;50.864;20.658;2022-09-06T14:58:50;18.90;59.40
40340;DHT22;26044;50.864;20.658;2022-09-06T15:01:29;18.90;59.50
40340;DHT22;26044;50.864;20.658;2022-09-06T15:04:04;18.80;59.30
40340;DHT22;26044;50.864;20.658;2022-09-06T15:06:33;18.80;58.90
40340;DHT22;26044;50.864;20.658;2022-09-06T15:09:03;18.70;58.80
40340;DHT22;26044;50.864;20.658;2022-09-06T15:11:47;18.70;60.20
40340;DHT22;26044;50.864;20.658;2022-09-06T15:14:20;18.60;60.00
40340;DHT22;26044;50.864;20.658;2022-09-06T15:16:48;18.60;60.70
40340;DHT22;26044;50.864;20.658;2022-09-06T15:19:22;18.60;60.90
40340;DHT22;26044;50.864;20.658;2022-09-06T15:21:50;18.50;61.00
40340;DHT22;26044;50.864;20.658;2022-09-06T15:24:17;18.50;61.20
40340;DHT22;26044;50.864;20.658;2022-09-06T15:26:43;18.40;61.70
40340;DHT22;26044;50.864;20.658;2022-09-06T15:29:11;18.40;61.60
40340;DHT22;26044;50.864;20.658;2022-09-06T15:31:39;18.40;62.10
40340;DHT22;26044;50.864;20.658;2022-09-06T15:34:06;18.20;62.20
40340;DHT22;26044;50.864;20.658;2022-09-06T15:36:34;18.20;62.50
40340;DHT22;26044;50.864;20.658;2022-09-06T15:39:03;18.10;62.00
40340;DHT22;26044;50.864;20.658;2022-09-06T15:41:32;18.00;62.40
40340;DHT22;26044;50.864;20.658;2022-09-06T15:44:01;18.00;62.10
40340;DHT22;26044;50.864;20.658;2022-09-06T15:46:49;18.00;62.40
40340;DHT22;26044;50.864;20.658;2022-09-06T15:49:24;17.90;63.20
40340;DHT22;26044;50.864;20.658;2022-09-06T15:51:58;17.90;63.60
40340;DHT22;26044;50.864;20.658;2022-09-06T15:54:27;17.90;63.30
40340;DHT22;26044;50.864;20.658;2022-09-06T15:57:14;17.80;63.50
40340;DHT22;26044;50.864;20.658;2022-09-06T15:59:42;17.70;64.20
40340;DHT22;26044;50.864;20.658;2022-09-06T16:02:09;17.70;64.50
40340;DHT22;26044;50.864;20.658;2022-09-06T16:04:36;17.70;64.00
40340;DHT22;26044;50.864;20.658;2022-09-06T16:07:02;17.70;64.40
40340;DHT22;26044;50.864;20.658;2022-09-06T16:09:29;17.60;64.60
40340;DHT22;26044;50.864;20.658;2022-09-06T16:11:57;17.50;65.10
40340;DHT22;26044;50.864;20.658;2022-09-06T16:14:23;17.50;65.70
40340;DHT22;26044;50.864;20.658;2022-09-06T16:16:50;17.40;65.70
40340;DHT22;26044;50.864;20.658;2022-09-06T16:19:19;17.40;66.50
40340;DHT22;26044;50.864;20.658;2022-09-06T16:21:46;17.30;66.80
40340;DHT22;26044;50.864;20.658;2022-09-06T16:24:13;17.30;66.80
40340;DHT22;26044;50.864;20.658;2022-09-06T16:26:42;17.30;67.40
40340;DHT22;26044;50.864;20.658;2022-09-06T16:29:11;17.30;67.10
40340;DHT22;26044;50.864;20.658;2022-09-06T16:31:38;17.30;68.00
40340;DHT22;26044;50.864;20.658;2022-09-06T16:34:07;17.30;67.70
40340;DHT22;26044;50.864;20.658;2022-09-06T16:36:34;17.20;69.20
40340;DHT22;26044;50.864;20.658;2022-09-06T16:39:01;17.20;68.50
40340;DHT22;26044;50.864;20.658;2022-09-06T16:41:41;17.10;70.30
40340;DHT22;26044;50.864;20.658;2022-09-06T16:44:08;17.10;69.60
40340;DHT22;26044;50.864;20.658;2022-09-06T16:46:36;17.00;69.40
40340;DHT22;26044;50.864;20.658;2022-09-06T16:49:05;17.00;69.20
40340;DHT22;26044;50.864;20.658;2022-09-06T16:51:32;16.90;69.20
40340;DHT22;26044;50.864;20.658;2022-09-06T16:53:59;16.80;69.40
40340;DHT22;26044;50.864;20.658;2022-09-06T16:56:31;16.70;70.30
40340;DHT22;26044;50.864;20.658;2022-09-06T16:59:02;16.70;70.10
40340;DHT22;26044;50.864;20.658;2022-09-06T17:01:31;16.60;70.50
40340;DHT22;26044;50.864;20.658;2022-09-06T17:03:59;16.60;71.30
40340;DHT22;26044;50.864;20.658;2022-09-06T17:06:28;16.60;72.00
40340;DHT22;26044;50.864;20.658;2022-09-06T17:08:56;16.50;73.20
40340;DHT22;26044;50.864;20.658;2022-09-06T17:11:27;16.50;76.30
40340;DHT22;26044;50.864;20.658;2022-09-06T17:13:55;16.40;76.90
40340;DHT22;26044;50.864;20.658;2022-09-06T17:16:23;16.30;77.20
40340;DHT22;26044;50.864;20.658;2022-09-06T17:19:11;16.20;77.00
40340;DHT22;26044;50.864;20.658;2022-09-06T17:21:39;16.20;79.30
40340;DHT22;26044;50.864;20.658;2022-09-06T17:24:07;16.00;77.30
40340;DHT22;26044;50.864;20.658;2022-09-06T17:26:36;16.00;77.40